UYF weather

Madison County Airport
London, Ohio, United States

Public forecast

Using degrees Fahrenheit for public forecast. Weather courtesy of forecast.io.

Current aviation weather report (METAR) for Madison County Airport

Retrieved 2020/06/05 02:55 UTC (10 minutes ago):

KUYF 050255Z AUTO 20004KT 10SM CLR 22/21 A2986 RMK AO2

Closest aviation forecast (TAF) to Madison County Airport

Closest forecast is Rickenbacker International Airport, 25.6 nm (47.5 km) ESE. Retrieved 2020-06-05 00:44 UTC (2 hours ago):

TAF KLCK 042338Z 0500/0524 19010KT P6SM SCT025 BKN120 FM050300 22005KT P6SM VCSH SCT035 BKN100 FM050900 21003KT 5SM BR SCT025 FM051300 22004KT P6SM SCT035 FM051900 24006KT P6SM SCT035 BKN100